createdAt,value
2023-04-16T00:00:04.437Z,91.17
2023-04-16T00:05:12.452Z,91.04
2023-04-16T00:10:14.278Z,91.16
2023-04-16T00:15:15.923Z,91.11
2023-04-16T00:20:17.745Z,91.40
2023-04-16T00:25:19.355Z,93.35
2023-04-16T00:30:20.970Z,93.82
2023-04-16T00:35:22.896Z,92.71
2023-04-16T00:40:29.010Z,92.61
2023-04-16T00:45:30.789Z,92.00
2023-04-16T00:50:33.610Z,92.41
2023-04-16T00:55:35.448Z,92.47
2023-04-16T01:00:37.059Z,91.84
2023-04-16T01:05:39.309Z,91.95
2023-04-16T01:10:41.336Z,92.23
2023-04-16T01:15:43.011Z,91.81
2023-04-16T01:20:45.540Z,92.17
2023-04-16T01:25:47.413Z,92.49
2023-04-16T01:30:49.116Z,92.63
2023-04-16T01:36:08.097Z,92.76
2023-04-16T01:41:09.889Z,93.26
2023-04-16T01:46:16.059Z,93.40
2023-04-16T01:51:17.729Z,93.38
2023-04-16T01:56:20.254Z,93.64
2023-04-16T02:01:22.135Z,93.33
2023-04-16T02:06:24.160Z,93.32
2023-04-16T02:11:26.554Z,93.27
2023-04-16T02:16:29.118Z,93.13
2023-04-16T02:21:41.706Z,96.62
2023-04-16T02:26:43.512Z,94.73
2023-04-16T02:31:50.149Z,94.50
2023-04-16T02:36:52.208Z,93.88
2023-04-16T02:41:54.297Z,93.75
2023-04-16T02:46:56.207Z,93.61
2023-04-16T02:51:58.061Z,94.50
2023-04-16T02:56:59.697Z,93.97
2023-04-16T03:02:01.570Z,93.51
2023-04-16T03:07:03.292Z,93.58
2023-04-16T03:12:05.291Z,93.34
2023-04-16T03:17:07.166Z,93.71
2023-04-16T03:22:08.859Z,93.53
2023-04-16T03:27:10.600Z,93.38
2023-04-16T03:32:12.824Z,93.46
2023-04-16T03:37:14.483Z,93.63
2023-04-16T03:42:16.383Z,93.26
2023-04-16T03:47:18.048Z,96.22
2023-04-16T03:52:21.554Z,94.65
2023-04-16T03:57:23.292Z,94.32
2023-04-16T04:02:26.079Z,94.31
2023-04-16T04:07:27.963Z,94.62
2023-04-16T04:12:29.719Z,94.79
2023-04-16T04:17:31.401Z,94.50
2023-04-16T04:22:33.343Z,95.55
2023-04-16T04:27:35.499Z,94.64
2023-04-16T04:32:37.527Z,94.55
2023-04-16T04:37:39.352Z,94.28
2023-04-16T04:42:50.630Z,94.48
2023-04-16T04:47:55.697Z,94.41
2023-04-16T04:52:57.991Z,95.07
2023-04-16T04:57:59.637Z,95.12
2023-04-16T05:03:11.324Z,95.09
2023-04-16T05:08:13.425Z,95.33
2023-04-16T05:13:15.045Z,95.36
2023-04-16T05:18:16.631Z,95.33
2023-04-16T05:23:18.293Z,95.64
2023-04-16T05:28:20.140Z,95.84
2023-04-16T05:33:21.827Z,96.25
2023-04-16T05:38:23.458Z,99.14
2023-04-16T05:43:25.091Z,99.77
2023-04-16T05:48:26.710Z,100.00
2023-04-16T05:53:28.337Z,100.00
2023-04-16T05:58:29.953Z,100.00
2023-04-16T06:03:31.878Z,100.00
2023-04-16T06:08:33.709Z,100.00
2023-04-16T06:13:35.322Z,100.00
2023-04-16T06:18:36.969Z,100.00
2023-04-16T06:23:38.602Z,99.89
2023-04-16T06:28:40.429Z,100.00
2023-04-16T06:33:42.253Z,100.00
2023-04-16T06:38:44.128Z,99.33
2023-04-16T06:43:45.933Z,99.10
2023-04-16T06:48:47.605Z,98.49
2023-04-16T06:53:49.590Z,97.29
2023-04-16T06:58:51.569Z,97.06
2023-04-16T07:03:53.455Z,95.72
2023-04-16T07:08:55.695Z,95.27
2023-04-16T07:13:58.934Z,95.02
2023-04-16T07:19:00.574Z,95.01
2023-04-16T07:24:02.924Z,92.95
2023-04-16T07:29:04.588Z,92.43
2023-04-16T07:34:06.508Z,91.90
2023-04-16T07:39:08.491Z,90.93
2023-04-16T07:44:10.644Z,90.32
2023-04-16T07:49:12.293Z,89.64
2023-04-16T07:54:13.941Z,90.21
2023-04-16T07:59:23.079Z,89.48
2023-04-16T08:04:26.534Z,86.84
2023-04-16T08:09:28.961Z,88.24
2023-04-16T08:14:31.250Z,87.22
2023-04-16T08:19:32.877Z,86.34
2023-04-16T08:24:34.488Z,84.42
2023-04-16T08:29:36.164Z,84.78
2023-04-16T08:34:38.136Z,83.41
2023-04-16T08:39:39.830Z,82.31
2023-04-16T08:44:48.843Z,82.98
2023-04-16T08:49:52.446Z,81.07
2023-04-16T08:55:05.349Z,80.05
2023-04-16T09:00:09.050Z,81.04
2023-04-16T09:05:11.398Z,79.72
2023-04-16T09:10:15.019Z,78.80
2023-04-16T09:15:16.637Z,75.03
2023-04-16T09:20:18.802Z,73.82
2023-04-16T09:25:22.584Z,75.38
2023-04-16T09:30:28.308Z,71.99
2023-04-16T09:35:45.349Z,74.39
2023-04-16T09:40:49.910Z,73.37
2023-04-16T09:45:53.369Z,72.12
2023-04-16T09:50:54.999Z,69.81
2023-04-16T09:55:58.078Z,70.99
2023-04-16T10:01:05.456Z,66.95
2023-04-16T10:06:15.120Z,66.27
2023-04-16T10:11:17.855Z,64.37
2023-04-16T10:16:19.525Z,67.53
2023-04-16T10:21:21.521Z,62.40
2023-04-16T10:26:25.396Z,65.37
2023-04-16T10:31:28.034Z,64.58
2023-04-16T10:36:29.924Z,63.60
2023-04-16T10:41:34.385Z,61.75
2023-04-16T10:46:41.501Z,61.29
2023-04-16T10:51:53.503Z,61.59
2023-04-16T10:57:04.396Z,63.30
2023-04-16T11:02:09.760Z,62.80
2023-04-16T11:07:11.625Z,59.31
2023-04-16T11:12:15.372Z,60.47
2023-04-16T11:17:17.486Z,61.02
2023-04-16T11:22:19.264Z,57.84
2023-04-16T11:27:21.073Z,57.49
2023-04-16T11:32:22.937Z,57.93
2023-04-16T11:37:35.465Z,58.51
2023-04-16T11:42:40.681Z,57.97
2023-04-16T11:47:55.513Z,55.15
2023-04-16T11:53:03.085Z,55.29
2023-04-16T11:58:17.924Z,55.84
2023-04-16T12:03:37.522Z,54.55
2023-04-16T12:08:39.359Z,55.29
2023-04-16T12:13:41.108Z,54.75
2023-04-16T12:19:00.404Z,56.07
2023-04-16T12:24:02.049Z,55.53
2023-04-16T12:29:16.485Z,57.77
2023-04-16T12:34:19.517Z,58.15
2023-04-16T12:39:22.578Z,57.80
2023-04-16T12:44:24.235Z,57.23
2023-04-16T12:49:26.101Z,57.42
2023-04-16T12:54:29.788Z,58.22
2023-04-16T12:59:31.382Z,58.74
2023-04-16T13:04:33.232Z,59.41
2023-04-16T13:09:35.615Z,61.52
2023-04-16T13:14:38.722Z,61.52
2023-04-16T13:19:40.364Z,60.60
2023-04-16T13:24:42.281Z,60.21
2023-04-16T13:29:44.602Z,62.36
2023-04-16T13:34:46.532Z,62.65
2023-04-16T13:39:48.122Z,63.51
2023-04-16T13:44:53.102Z,64.12
2023-04-16T13:49:54.954Z,63.91
2023-04-16T13:54:57.850Z,64.53
2023-04-16T14:00:01.558Z,66.43
2023-04-16T14:05:03.293Z,66.62
2023-04-16T14:10:05.287Z,67.08
2023-04-16T14:15:09.585Z,67.71
2023-04-16T14:20:13.111Z,67.92
2023-04-16T14:25:14.700Z,67.91
2023-04-16T14:30:16.734Z,68.39
2023-04-16T14:35:18.392Z,67.94
2023-04-16T14:40:20.070Z,68.45
2023-04-16T14:45:21.968Z,68.98
2023-04-16T14:50:23.666Z,69.29
2023-04-16T14:55:26.147Z,70.11
2023-04-16T15:00:28.113Z,70.60
2023-04-16T15:05:30.752Z,71.08
2023-04-16T15:10:32.890Z,71.08
2023-04-16T15:15:34.588Z,71.37
2023-04-16T15:20:36.272Z,72.27
2023-04-16T15:25:38.062Z,72.86
2023-04-16T15:30:40.823Z,73.10
2023-04-16T15:35:42.424Z,73.85
2023-04-16T15:40:44.180Z,73.31
2023-04-16T15:45:45.775Z,73.28
2023-04-16T15:50:48.167Z,73.54
2023-04-16T15:55:52.632Z,73.43
2023-04-16T16:00:54.316Z,73.49
2023-04-16T16:05:58.808Z,73.61
2023-04-16T16:11:01.462Z,73.68
2023-04-16T16:16:04.003Z,73.69
2023-04-16T16:21:06.208Z,73.44
2023-04-16T16:26:08.768Z,73.98
2023-04-16T16:31:12.181Z,74.03
2023-04-16T16:36:14.261Z,73.77
2023-04-16T16:41:15.881Z,74.25
2023-04-16T16:46:17.677Z,74.13
2023-04-16T16:51:20.591Z,74.18
2023-04-16T16:56:22.948Z,74.12
2023-04-16T17:01:28.282Z,74.12
2023-04-16T17:06:30.392Z,75.09
2023-04-16T17:11:32.219Z,75.16
2023-04-16T17:16:34.206Z,74.93
2023-04-16T17:21:36.152Z,75.01
2023-04-16T17:26:40.851Z,75.04
2023-04-16T17:31:42.566Z,75.47
2023-04-16T17:36:44.321Z,75.59
2023-04-16T17:41:46.072Z,75.93
2023-04-16T17:46:47.742Z,76.26
2023-04-16T17:51:49.414Z,76.19
2023-04-16T17:56:51.143Z,76.78
2023-04-16T18:01:53.042Z,77.16
2023-04-16T18:06:54.819Z,78.23
2023-04-16T18:11:57.096Z,79.84
2023-04-16T18:16:58.933Z,80.14
2023-04-16T18:22:00.669Z,80.90
2023-04-16T18:27:03.373Z,80.96
2023-04-16T18:32:05.429Z,82.48
2023-04-16T18:37:07.142Z,82.02
2023-04-16T18:42:09.110Z,82.25
2023-04-16T18:47:10.873Z,82.43
2023-04-16T18:52:12.815Z,82.83
2023-04-16T18:57:14.574Z,83.63
2023-04-16T19:02:16.235Z,84.49
2023-04-16T19:07:18.065Z,84.04
2023-04-16T19:12:19.889Z,84.04
2023-04-16T19:17:21.677Z,84.93
2023-04-16T19:22:23.341Z,84.43
2023-04-16T19:27:25.394Z,84.20
2023-04-16T19:32:26.990Z,84.70
2023-04-16T19:37:28.609Z,85.17
2023-04-16T19:42:30.190Z,86.15
2023-04-16T19:47:32.260Z,85.98
2023-04-16T19:52:38.704Z,86.42
2023-04-16T19:57:40.360Z,86.44
2023-04-16T20:02:42.086Z,86.62
2023-04-16T20:07:43.822Z,86.58
2023-04-16T20:12:45.497Z,86.29
2023-04-16T20:17:47.180Z,86.96
2023-04-16T20:22:49.067Z,87.22
2023-04-16T20:27:50.685Z,87.14
2023-04-16T20:32:52.327Z,87.67
2023-04-16T20:37:53.967Z,87.29
2023-04-16T20:42:59.874Z,87.55
2023-04-16T20:48:02.355Z,87.55
2023-04-16T20:53:04.381Z,88.17
2023-04-16T20:58:05.999Z,87.76
2023-04-16T21:03:07.857Z,87.18
2023-04-16T21:08:09.598Z,87.40
2023-04-16T21:13:11.451Z,87.29
2023-04-16T21:18:13.348Z,87.74
2023-04-16T21:23:14.967Z,86.94
2023-04-16T21:28:16.558Z,87.29
2023-04-16T21:33:18.339Z,86.86
2023-04-16T21:38:20.990Z,87.41
2023-04-16T21:43:23.484Z,87.42
2023-04-16T21:48:25.639Z,87.53
2023-04-16T21:53:31.921Z,87.54
2023-04-16T21:58:33.589Z,87.55
2023-04-16T22:03:40.066Z,87.83
2023-04-16T22:08:42.217Z,87.50
2023-04-16T22:13:46.346Z,87.62
2023-04-16T22:18:48.003Z,87.85
2023-04-16T22:23:49.620Z,87.60
2023-04-16T22:28:51.516Z,87.49
2023-04-16T22:33:53.258Z,87.68
2023-04-16T22:38:54.863Z,87.92
2023-04-16T22:43:56.564Z,88.08
2023-04-16T22:48:58.166Z,88.21
2023-04-16T22:53:59.728Z,88.29
2023-04-16T22:59:01.385Z,88.90
2023-04-16T23:04:03.021Z,89.14
2023-04-16T23:09:05.232Z,89.46
2023-04-16T23:14:07.656Z,89.84
2023-04-16T23:19:14.749Z,89.94
2023-04-16T23:24:17.187Z,89.69
2023-04-16T23:29:19.260Z,89.36
2023-04-16T23:34:20.951Z,89.23
2023-04-16T23:39:22.630Z,89.38
2023-04-16T23:44:24.383Z,89.60
2023-04-16T23:49:26.227Z,90.27
2023-04-16T23:54:27.939Z,90.15
2023-04-16T23:59:29.550Z,90.08
